Time;durP1;ratioP1;P1;durP2;ratioP2;P2;SDS_P1;SDS_P2;PMS_P1;PMS_P2;Temp;Humidity;BMP_temperature;BMP_pressure;BME280_temperature;BME280_humidity;BME280_pressure;Samples;Min_cycle;Max_cycle;Signal;HPM_P1;HPM_P2
2022/08/21 00:02:22;;;;;;;28.23;26.23;;;21.80;55.20;;;;;;5032352;28;20037;-78
2022/08/21 00:04:50;;;;;;;25.73;23.63;;;21.80;55.50;;;;;;5033262;28;20037;-77
2022/08/21 00:07:16;;;;;;;31.92;29.45;;;21.80;55.90;;;;;;5033118;28;20044;-78
2022/08/21 00:09:42;;;;;;;47.17;44.00;;;21.80;55.80;;;;;;5049538;28;20029;-78
2022/08/21 00:12:08;;;;;;;39.35;36.65;;;21.80;55.70;;;;;;5049706;28;20025;-77
2022/08/21 00:14:35;;;;;;;34.90;32.47;;;21.80;55.90;;;;;;5049596;28;20417;-77
2022/08/21 00:17:01;;;;;;;55.85;52.38;;;21.80;55.90;;;;;;5048673;28;20064;-78
2022/08/21 00:19:27;;;;;;;50.55;46.97;;;21.80;56.30;;;;;;5049828;28;20041;-78
2022/08/21 00:21:54;;;;;;;40.35;37.80;;;21.70;56.30;;;;;;5035933;28;20041;-78
2022/08/21 00:24:20;;;;;;;37.13;34.42;;;21.70;56.20;;;;;;5036824;28;20474;-78
2022/08/21 00:26:47;;;;;;;34.38;31.70;;;21.70;56.40;;;;;;5036670;28;20393;-78
2022/08/21 00:29:13;;;;;;;31.13;28.85;;;21.70;56.50;;;;;;5053544;28;20029;-78
2022/08/21 00:31:40;;;;;;;38.58;35.70;;;21.70;56.50;;;;;;5052716;28;20029;-78
2022/08/21 00:34:07;;;;;;;35.05;32.65;;;21.70;56.60;;;;;;5036638;28;20037;-78
2022/08/21 00:36:33;;;;;;;37.13;34.65;;;21.70;56.80;;;;;;5053203;28;20045;-78
2022/08/21 00:39:00;;;;;;;36.65;33.95;;;21.70;56.60;;;;;;5036390;28;20040;-78
2022/08/21 00:41:26;;;;;;;36.83;34.25;;;21.70;56.70;;;;;;5053573;28;20029;-78
2022/08/21 00:43:53;;;;;;;39.25;36.55;;;21.70;57.00;;;;;;5067812;28;20013;-78
2022/08/21 00:46:19;;;;;;;34.60;32.10;;;21.60;57.10;;;;;;5056757;28;20044;-78
2022/08/21 00:48:45;;;;;;;35.78;33.13;;;21.60;57.20;;;;;;5036000;28;20040;-78
2022/08/21 00:51:14;;;;;;;35.75;33.17;;;21.50;57.50;;;;;;5019830;28;20048;-78
2022/08/21 00:53:42;;;;;;;48.47;45.28;;;21.50;57.40;;;;;;5052913;28;20025;-78
2022/08/21 00:56:09;;;;;;;41.95;39.08;;;21.50;57.60;;;;;;5020208;28;20063;-78
2022/08/21 00:58:35;;;;;;;37.65;35.13;;;21.40;57.80;;;;;;5036748;28;20375;-78
2022/08/21 01:01:04;;;;;;;46.67;43.78;;;21.30;58.30;;;;;;5018900;28;20056;-78
2022/08/21 01:03:30;;;;;;;41.70;38.88;;;21.30;58.20;;;;;;5036185;28;20394;-78
2022/08/21 01:05:56;;;;;;;46.72;43.30;;;21.30;58.70;;;;;;5036408;28;20048;-78
2022/08/21 01:08:23;;;;;;;42.38;39.40;;;21.20;58.70;;;;;;5035956;28;20382;-78
2022/08/21 01:10:49;;;;;;;47.92;44.80;;;21.20;58.70;;;;;;5035748;28;20045;-78
2022/08/21 01:13:16;;;;;;;43.97;40.85;;;21.20;58.70;;;;;;5036002;28;20044;-77
2022/08/21 01:15:44;;;;;;;43.40;40.30;;;21.20;58.90;;;;;;5034880;28;20029;-78
2022/08/21 01:18:11;;;;;;;35.60;32.97;;;21.20;58.80;;;;;;5035842;28;20052;-78
2022/08/21 01:20:38;;;;;;;34.85;32.45;;;21.20;59.10;;;;;;5052599;28;20028;-78
2022/08/21 01:23:05;;;;;;;34.97;32.25;;;21.10;59.20;;;;;;5052530;28;20032;-78
2022/08/21 01:25:31;;;;;;;34.40;31.63;;;21.10;59.10;;;;;;5052325;28;20032;-77
2022/08/21 01:27:58;;;;;;;32.38;30.00;;;21.10;59.20;;;;;;5035834;28;20033;-77
2022/08/21 01:30:25;;;;;;;30.17;27.73;;;21.00;59.70;;;;;;5051760;28;20037;-78
2022/08/21 01:32:51;;;;;;;29.38;27.02;;;21.00;59.50;;;;;;5051447;28;20036;-78
2022/08/21 01:35:18;;;;;;;30.38;27.58;;;21.00;59.60;;;;;;5035325;28;20041;-78
2022/08/21 01:37:44;;;;;;;30.60;28.08;;;21.00;59.70;;;;;;5052240;28;20417;-77
2022/08/21 01:40:11;;;;;;;44.42;41.28;;;21.00;59.70;;;;;;5035220;28;20040;-77
2022/08/21 01:42:37;;;;;;;30.17;27.85;;;21.00;59.80;;;;;;5035578;28;20442;-78
2022/08/21 01:45:04;;;;;;;34.47;31.88;;;20.90;60.30;;;;;;5055992;28;20029;-78
2022/08/21 01:47:30;;;;;;;37.80;35.42;;;20.80;60.60;;;;;;5021811;28;20041;-78
2022/08/21 01:49:57;;;;;;;32.97;30.75;;;20.80;60.70;;;;;;5035698;28;20024;-78
2022/08/21 01:52:23;;;;;;;35.58;32.95;;;20.80;60.80;;;;;;5051992;28;20037;-77
2022/08/21 01:54:49;;;;;;;28.52;26.55;;;20.80;60.70;;;;;;5035455;28;20028;-77
2022/08/21 01:57:15;;;;;;;29.80;27.65;;;20.80;60.90;;;;;;5018438;28;20051;-77
2022/08/21 01:59:41;;;;;;;28.42;25.92;;;20.80;60.70;;;;;;5018564;28;20041;-78
2022/08/21 02:02:07;;;;;;;26.10;24.08;;;20.80;60.70;;;;;;5051389;28;20044;-78
2022/08/21 02:04:33;;;;;;;26.00;24.10;;;20.90;60.80;;;;;;5051726;28;20028;-77
2022/08/21 02:07:00;;;;;;;26.95;24.65;;;20.80;60.90;;;;;;5035418;28;20486;-77
2022/08/21 02:09:26;;;;;;;32.85;30.08;;;20.80;61.20;;;;;;5051752;28;20032;-77
2022/08/21 02:11:53;;;;;;;34.35;32.05;;;20.80;61.20;;;;;;5034796;28;20041;-78
2022/08/21 02:14:19;;;;;;;34.10;31.70;;;20.80;61.70;;;;;;5034661;28;20037;-77
2022/08/21 02:16:45;;;;;;;31.98;29.60;;;20.80;61.90;;;;;;5051048;28;20049;-77
2022/08/21 02:19:12;;;;;;;30.55;28.30;;;20.80;62.40;;;;;;5051025;28;20044;-78
2022/08/21 02:21:39;;;;;;;32.08;29.75;;;20.70;62.60;;;;;;5051402;28;20036;-77
2022/08/21 02:24:05;;;;;;;33.78;31.45;;;20.70;62.60;;;;;;5034694;28;20037;-78
2022/08/21 02:26:31;;;;;;;34.72;32.35;;;20.60;62.50;;;;;;5034397;28;20040;-78
2022/08/21 02:28:57;;;;;;;36.67;33.95;;;20.70;62.40;;;;;;5052309;28;20147;-77
2022/08/21 02:31:24;;;;;;;33.75;31.38;;;20.60;62.90;;;;;;5050818;28;20124;-77
2022/08/21 02:33:50;;;;;;;32.35;30.25;;;20.50;63.10;;;;;;5050941;28;20056;-78
2022/08/21 02:36:17;;;;;;;33.10;30.58;;;20.40;63.10;;;;;;5034114;28;20053;-77
2022/08/21 02:38:43;;;;;;;32.50;30.10;;;20.40;63.30;;;;;;5051297;28;20040;-77
2022/08/21 02:41:14;;;;;;;31.38;29.10;;;20.50;63.20;;;;;;5050823;28;20029;-77
2022/08/21 02:43:40;;;;;;;32.28;29.73;;;20.40;63.40;;;;;;5050411;28;20013;-77
2022/08/21 02:46:07;;;;;;;34.22;31.27;;;20.40;63.50;;;;;;5053564;28;20029;-78
2022/08/21 02:48:33;;;;;;;35.25;32.55;;;20.40;63.60;;;;;;5034654;28;20037;-77
2022/08/21 02:51:01;;;;;;;36.33;33.88;;;20.40;63.80;;;;;;5050927;28;20029;-77
2022/08/21 02:53:28;;;;;;;38.70;35.88;;;20.40;63.90;;;;;;5034653;28;20025;-78
2022/08/21 02:55:54;;;;;;;40.42;38.10;;;20.30;64.10;;;;;;5017896;28;20044;-78
2022/08/21 02:58:24;;;;;;;35.50;32.92;;;20.30;64.20;;;;;;5034117;28;20518;-77
2022/08/21 03:00:51;;;;;;;35.45;32.83;;;20.30;64.20;;;;;;5034211;28;20029;-78
2022/08/21 03:03:17;;;;;;;36.97;33.88;;;20.40;64.10;;;;;;5050920;28;20040;-77
2022/08/21 03:05:43;;;;;;;34.80;32.25;;;20.30;64.00;;;;;;5052033;28;20029;-78
2022/08/21 03:08:11;;;;;;;34.00;31.75;;;20.20;64.50;;;;;;5034079;28;20211;-77
2022/08/21 03:10:39;;;;;;;35.67;33.08;;;20.30;64.40;;;;;;5050335;28;20025;-78
2022/08/21 03:13:05;;;;;;;35.80;33.00;;;20.30;64.40;;;;;;5050469;28;20033;-77
2022/08/21 03:15:31;;;;;;;32.70;29.80;;;20.20;64.20;;;;;;5032996;28;20037;-77
2022/08/21 03:17:58;;;;;;;33.03;30.52;;;20.20;64.90;;;;;;5033681;28;20498;-77
2022/08/21 03:20:25;;;;;;;40.00;37.55;;;20.10;64.70;;;;;;5050351;28;20036;-77
2022/08/21 03:22:51;;;;;;;35.08;32.58;;;20.10;65.00;;;;;;5050283;28;20028;-77
2022/08/21 03:25:18;;;;;;;28.60;26.55;;;20.00;65.40;;;;;;5033293;28;20037;-77
2022/08/21 03:27:44;;;;;;;29.55;27.40;;;19.90;65.90;;;;;;5033386;28;20037;-77
2022/08/21 03:30:11;;;;;;;27.55;25.02;;;19.90;65.50;;;;;;5049707;28;20025;-78
2022/08/21 03:32:37;;;;;;;24.77;22.88;;;19.90;65.70;;;;;;5050273;28;20029;-77
2022/08/21 03:35:04;;;;;;;24.75;22.77;;;19.90;65.40;;;;;;5033280;28;20393;-77
2022/08/21 03:37:30;;;;;;;24.73;22.60;;;19.90;65.30;;;;;;5033447;28;20051;-77
2022/08/21 03:39:56;;;;;;;27.00;24.70;;;19.90;65.40;;;;;;5029650;28;20037;-77
2022/08/21 03:42:23;;;;;;;26.02;23.90;;;19.80;65.80;;;;;;5029982;28;20033;-77
2022/08/21 03:44:49;;;;;;;28.10;25.80;;;19.80;65.70;;;;;;5016373;28;20060;-77
2022/08/21 03:47:15;;;;;;;26.25;24.20;;;19.80;65.60;;;;;;5052540;28;20049;-77
2022/08/21 03:49:41;;;;;;;25.92;23.67;;;19.80;66.00;;;;;;5050023;28;20036;-77
2022/08/21 03:52:07;;;;;;;26.42;24.00;;;19.70;66.20;;;;;;5049758;28;20033;-77
2022/08/21 03:54:33;;;;;;;27.27;25.45;;;19.70;66.10;;;;;;5032810;28;20055;-78
2022/08/21 03:57:00;;;;;;;28.77;26.33;;;19.70;66.10;;;;;;5049540;28;20047;-77
2022/08/21 03:59:26;;;;;;;28.88;26.48;;;19.70;66.50;;;;;;5033154;28;20478;-77
2022/08/21 04:01:56;;;;;;;34.63;31.92;;;19.60;66.10;;;;;;5049085;28;20045;-77
2022/08/21 04:04:23;;;;;;;44.38;41.42;;;19.60;66.80;;;;;;5033086;28;20080;-77
2022/08/21 04:06:49;;;;;;;47.80;44.60;;;19.50;66.90;;;;;;5049948;28;20037;-77
2022/08/21 04:09:16;;;;;;;50.83;47.67;;;19.50;67.40;;;;;;5032698;28;20041;-77
2022/08/21 04:11:43;;;;;;;31.33;29.02;;;19.40;67.40;;;;;;5049611;28;20025;-77
2022/08/21 04:14:09;;;;;;;25.30;23.23;;;19.40;67.10;;;;;;5049555;28;20500;-77
2022/08/21 04:16:35;;;;;;;25.80;23.58;;;19.40;67.20;;;;;;5049229;28;20055;-77
2022/08/21 04:19:01;;;;;;;27.73;25.58;;;19.40;67.30;;;;;;5032521;28;20044;-77
2022/08/21 04:21:27;;;;;;;28.67;26.35;;;19.40;67.60;;;;;;5032936;28;20394;-77
2022/08/21 04:23:54;;;;;;;29.70;27.42;;;19.40;67.10;;;;;;5032604;28;20398;-77
2022/08/21 04:26:21;;;;;;;31.30;28.98;;;19.40;67.00;;;;;;5049524;28;20025;-77
2022/08/21 04:28:47;;;;;;;32.42;29.75;;;19.40;66.90;;;;;;5032765;28;20041;-77
2022/08/21 04:31:13;;;;;;;31.40;29.35;;;19.40;67.10;;;;;;5048841;28;20040;-77
2022/08/21 04:33:39;;;;;;;33.22;30.27;;;19.40;67.10;;;;;;5049444;28;20044;-77
2022/08/21 04:36:06;;;;;;;31.60;29.15;;;19.40;67.40;;;;;;5029150;28;20046;-77
2022/08/21 04:38:33;;;;;;;32.85;30.35;;;19.40;67.40;;;;;;5012733;28;20044;-77
2022/08/21 04:40:59;;;;;;;34.22;31.83;;;19.40;67.30;;;;;;5030831;28;20044;-77
2022/08/21 04:43:25;;;;;;;32.38;30.30;;;19.40;67.10;;;;;;5049266;28;20056;-77
2022/08/21 04:45:51;;;;;;;33.25;30.80;;;19.40;67.40;;;;;;5049998;28;20433;-77
2022/08/21 04:48:20;;;;;;;33.55;31.17;;;19.40;67.60;;;;;;5016020;28;20111;-77
2022/08/21 04:51:05;;;;;;;32.42;29.83;;;19.40;67.20;;;;;;5016550;28;20104;-77
2022/08/21 04:53:48;;;;;;;30.27;28.15;;;19.40;67.60;;;;;;5050342;28;20025;-77
2022/08/21 04:56:31;;;;;;;32.40;29.75;;;19.40;67.80;;;;;;5016469;28;20033;-77
2022/08/21 04:58:59;;;;;;;31.70;29.27;;;19.30;67.50;;;;;;5018105;28;20041;-77
2022/08/21 05:01:27;;;;;;;31.88;29.13;;;19.30;67.60;;;;;;5015939;28;20029;-77
2022/08/21 05:03:55;;;;;;;30.83;28.27;;;19.30;67.80;;;;;;5049278;28;20397;-77
2022/08/21 05:06:22;;;;;;;31.27;28.80;;;19.30;67.90;;;;;;5032383;28;20036;-77
2022/08/21 05:08:48;;;;;;;30.17;27.55;;;19.30;67.90;;;;;;5051795;28;20025;-77
2022/08/21 05:11:14;;;;;;;31.60;29.05;;;19.30;67.80;;;;;;5052741;28;20033;-77
2022/08/21 05:13:41;;;;;;;32.20;29.60;;;19.30;67.80;;;;;;5052830;28;20021;-77
2022/08/21 05:16:07;;;;;;;29.83;27.02;;;19.20;67.90;;;;;;5053303;28;20040;-77
2022/08/21 05:18:33;;;;;;;31.40;28.50;;;19.20;68.20;;;;;;5052867;28;20083;-77
2022/08/21 05:20:59;;;;;;;30.40;27.85;;;19.20;68.10;;;;;;5035456;28;20040;-77
2022/08/21 05:23:25;;;;;;;32.10;29.35;;;19.20;68.00;;;;;;5052140;28;20033;-77
2022/08/21 05:25:52;;;;;;;33.45;30.88;;;19.20;68.40;;;;;;5052551;28;20036;-77
2022/08/21 05:28:18;;;;;;;31.88;29.30;;;19.20;68.20;;;;;;5035568;28;20037;-77
2022/08/21 05:30:44;;;;;;;32.00;29.58;;;19.20;68.30;;;;;;5051991;28;20032;-77
2022/08/21 05:33:11;;;;;;;33.40;30.88;;;19.20;68.30;;;;;;5035684;28;20068;-77
2022/08/21 05:35:38;;;;;;;31.90;29.55;;;19.20;68.40;;;;;;5035996;28;20030;-77
2022/08/21 05:38:04;;;;;;;32.05;29.83;;;19.30;68.40;;;;;;5012409;28;20050;-77
2022/08/21 05:40:30;;;;;;;31.60;29.15;;;19.30;68.30;;;;;;5026336;28;20390;-77
2022/08/21 05:42:56;;;;;;;33.80;31.20;;;19.30;68.40;;;;;;5015731;28;20597;-77
2022/08/21 05:45:23;;;;;;;32.65;30.15;;;19.30;68.40;;;;;;5020137;28;20474;-77
2022/08/21 05:47:49;;;;;;;31.67;28.92;;;19.30;69.30;;;;;;5035032;28;20041;-77
2022/08/21 05:50:15;;;;;;;32.05;29.77;;;19.30;68.80;;;;;;5050806;28;20037;-77
2022/08/21 05:52:41;;;;;;;33.33;30.48;;;19.40;68.70;;;;;;5052167;28;20100;-77
2022/08/21 05:55:08;;;;;;;31.65;29.40;;;19.30;68.70;;;;;;5035274;28;20037;-77
2022/08/21 05:57:34;;;;;;;34.47;31.98;;;19.30;68.40;;;;;;5051893;28;20044;-77
2022/08/21 06:00:00;;;;;;;32.65;30.45;;;19.30;68.40;;;;;;5051824;28;20029;-77
2022/08/21 06:02:26;;;;;;;34.78;31.98;;;19.30;68.80;;;;;;5034487;28;20043;-77
2022/08/21 06:04:52;;;;;;;33.35;30.60;;;19.40;68.70;;;;;;5051378;28;20180;-77
2022/08/21 06:07:18;;;;;;;36.58;33.63;;;19.40;68.70;;;;;;5051734;28;20355;-77
2022/08/21 06:09:44;;;;;;;35.72;33.10;;;19.40;68.60;;;;;;5051736;28;20037;-77
2022/08/21 06:12:11;;;;;;;35.25;32.35;;;19.40;68.60;;;;;;5051625;28;20385;-77
2022/08/21 06:14:38;;;;;;;33.50;30.98;;;19.40;68.50;;;;;;5051661;28;20367;-77
2022/08/21 06:17:08;;;;;;;35.30;32.47;;;19.40;68.80;;;;;;5050680;28;20029;-77
2022/08/21 06:19:35;;;;;;;33.78;31.30;;;19.40;68.70;;;;;;5050903;28;20025;-77
2022/08/21 06:22:01;;;;;;;34.28;31.77;;;19.40;68.80;;;;;;5034717;28;20025;-77
2022/08/21 06:24:27;;;;;;;34.90;32.50;;;19.40;69.00;;;;;;5051076;28;20052;-77
2022/08/21 06:26:53;;;;;;;34.65;31.70;;;19.40;68.90;;;;;;5051378;28;20879;-77
2022/08/21 06:29:20;;;;;;;35.92;33.22;;;19.40;69.10;;;;;;5051317;28;20409;-77
2022/08/21 06:31:47;;;;;;;35.22;32.33;;;19.40;69.00;;;;;;5048550;28;20029;-78
2022/08/21 06:34:13;;;;;;;33.30;30.77;;;19.50;69.10;;;;;;5050876;28;20466;-77
2022/08/21 06:36:39;;;;;;;32.58;30.23;;;19.50;68.80;;;;;;5034502;28;20060;-77
2022/08/21 06:39:06;;;;;;;31.90;29.35;;;19.50;69.00;;;;;;5017559;28;20045;-78
2022/08/21 06:41:32;;;;;;;36.70;33.85;;;19.50;69.20;;;;;;5051151;28;20036;-78
2022/08/21 06:43:58;;;;;;;34.03;31.40;;;19.50;68.90;;;;;;5064779;28;20021;-78
2022/08/21 06:46:25;;;;;;;36.95;33.92;;;19.50;69.10;;;;;;5053038;28;20044;-78
2022/08/21 06:48:51;;;;;;;34.83;32.10;;;19.50;69.50;;;;;;5050608;28;20299;-78
2022/08/21 06:51:18;;;;;;;35.45;33.15;;;19.50;69.50;;;;;;5034385;28;20047;-77
2022/08/21 06:53:44;;;;;;;33.10;30.75;;;19.50;69.20;;;;;;5034490;28;20037;-78
2022/08/21 06:56:10;;;;;;;34.42;31.65;;;19.60;69.10;;;;;;5034283;28;20036;-78
2022/08/21 06:58:36;;;;;;;34.70;31.98;;;19.60;69.60;;;;;;5050613;28;20044;-77
2022/08/21 07:01:03;;;;;;;32.17;29.67;;;19.60;69.70;;;;;;5033201;28;20025;-77
2022/08/21 07:03:30;;;;;;;31.95;29.52;;;19.60;69.50;;;;;;5051585;28;20033;-77
2022/08/21 07:05:58;;;;;;;32.30;29.92;;;19.70;70.10;;;;;;5050656;28;20050;-78
2022/08/21 07:08:27;;;;;;;34.17;31.90;;;19.70;69.30;;;;;;5050528;28;20032;-78
2022/08/21 07:10:54;;;;;;;31.00;28.85;;;19.70;69.40;;;;;;5050584;28;20366;-77
2022/08/21 07:13:20;;;;;;;31.85;29.55;;;19.80;69.30;;;;;;5033829;28;20056;-78
2022/08/21 07:15:47;;;;;;;30.83;28.50;;;19.70;69.60;;;;;;5049990;28;20054;-77
2022/08/21 07:18:13;;;;;;;30.38;27.95;;;19.70;69.30;;;;;;5049823;28;20049;-77
2022/08/21 07:20:39;;;;;;;30.20;27.80;;;19.70;69.50;;;;;;5050343;28;20466;-77
2022/08/21 07:23:11;;;;;;;33.53;30.95;;;19.70;69.40;;;;;;5050150;28;20037;-77
2022/08/21 07:25:37;;;;;;;30.52;28.17;;;19.50;70.00;;;;;;5050324;28;20354;-77
2022/08/21 07:28:03;;;;;;;31.35;28.73;;;19.70;69.60;;;;;;5050501;28;20028;-77
2022/08/21 07:30:30;;;;;;;33.38;30.77;;;19.70;69.70;;;;;;5049096;28;20048;-78
2022/08/21 07:32:56;;;;;;;34.63;32.13;;;19.60;70.20;;;;;;5032960;28;20043;-77
2022/08/21 07:35:23;;;;;;;30.75;28.30;;;19.60;70.30;;;;;;5029926;28;20041;-77
2022/08/21 07:37:49;;;;;;;31.52;28.95;;;19.60;71.20;;;;;;5030280;28;20037;-77
2022/08/21 07:40:16;;;;;;;29.38;26.92;;;19.70;70.50;;;;;;5041369;28;20029;-78
2022/08/21 07:42:45;;;;;;;29.70;27.60;;;19.70;70.10;;;;;;5049845;28;20052;-78
2022/08/21 07:45:12;;;;;;;31.25;28.88;;;19.80;70.20;;;;;;5038241;28;20029;-78
2022/08/21 07:47:38;;;;;;;31.42;28.92;;;19.80;70.30;;;;;;5017538;28;20044;-77
2022/08/21 07:50:06;;;;;;;29.67;27.35;;;19.90;71.00;;;;;;5050386;28;20045;-78
2022/08/21 07:52:33;;;;;;;28.25;25.33;;;20.00;70.50;;;;;;5033537;28;20370;-77
2022/08/21 07:54:59;;;;;;;25.90;23.85;;;20.10;70.20;;;;;;5033474;28;20033;-77
2022/08/21 07:57:25;;;;;;;28.23;25.77;;;20.20;69.50;;;;;;5033287;28;20041;-77
2022/08/21 07:59:51;;;;;;;28.58;26.15;;;20.30;69.20;;;;;;5051030;28;20029;-78
2022/08/21 08:02:25;;;;;;;30.67;28.45;;;20.30;69.20;;;;;;5032387;28;20037;-78
2022/08/21 08:04:51;;;;;;;28.80;26.45;;;20.30;69.10;;;;;;5049590;28;20028;-78
2022/08/21 08:07:17;;;;;;;31.23;28.63;;;20.40;68.80;;;;;;5049913;28;20033;-78
2022/08/21 08:09:43;;;;;;;29.70;27.83;;;20.40;68.80;;;;;;5049662;28;20462;-78
2022/08/21 08:12:09;;;;;;;30.20;27.85;;;20.40;69.20;;;;;;5033210;28;20052;-78
2022/08/21 08:14:36;;;;;;;31.70;29.13;;;20.40;69.20;;;;;;5049725;28;20036;-78
2022/08/21 08:17:02;;;;;;;31.02;28.92;;;20.30;69.00;;;;;;5048660;28;20512;-78
2022/08/21 08:19:28;;;;;;;31.67;29.30;;;20.40;68.90;;;;;;5032819;28;20052;-77
2022/08/21 08:21:55;;;;;;;29.30;27.02;;;20.40;69.30;;;;;;5049667;28;20046;-78
2022/08/21 08:24:21;;;;;;;31.20;28.40;;;20.50;69.00;;;;;;5049566;28;20032;-78
2022/08/21 08:26:47;;;;;;;29.55;27.15;;;20.40;69.10;;;;;;5049726;28;20032;-78
2022/08/21 08:29:13;;;;;;;31.50;29.30;;;20.30;69.40;;;;;;5049456;28;20025;-77
2022/08/21 08:31:39;;;;;;;31.02;28.45;;;20.30;69.60;;;;;;5048644;28;20033;-78
2022/08/21 08:34:05;;;;;;;30.95;28.42;;;20.30;69.70;;;;;;5049393;28;20033;-78
2022/08/21 08:36:34;;;;;;;29.50;27.05;;;20.40;69.60;;;;;;5049427;28;20033;-78
2022/08/21 08:39:01;;;;;;;30.67;28.38;;;20.60;69.30;;;;;;5050528;28;20045;-78
2022/08/21 08:41:27;;;;;;;28.92;26.60;;;20.60;69.10;;;;;;5050124;28;20044;-78
2022/08/21 08:43:56;;;;;;;26.30;24.20;;;20.80;69.10;;;;;;5067699;28;20029;-78
2022/08/21 08:46:30;;;;;;;27.10;24.98;;;21.10;69.40;;;;;;5055779;28;20033;-78
2022/08/21 08:49:18;;;;;;;27.50;25.00;;;21.30;67.50;;;;;;5037191;28;20028;-78
2022/08/21 08:51:47;;;;;;;26.92;24.95;;;21.50;67.40;;;;;;5021692;28;20044;-78
2022/08/21 08:54:18;;;;;;;29.27;27.10;;;21.60;66.70;;;;;;5020003;28;20029;-78
2022/08/21 08:56:45;;;;;;;32.83;30.27;;;21.90;66.90;;;;;;5036946;28;20020;-78
2022/08/21 08:59:18;;;;;;;34.85;32.20;;;22.10;65.30;;;;;;5019711;28;20129;-78
2022/08/21 09:01:44;;;;;;;35.38;32.97;;;22.30;64.60;;;;;;5019865;28;20029;-78
2022/08/21 09:04:12;;;;;;;33.38;30.95;;;22.70;64.50;;;;;;5052997;28;20043;-78
2022/08/21 09:07:10;;;;;;;36.65;34.05;;;22.90;62.80;;;;;;5052825;28;20029;-78
2022/08/21 09:10:04;;;;;;;38.20;35.45;;;23.00;61.70;;;;;;5044565;28;20398;-78
2022/08/21 09:12:35;;;;;;;40.53;38.03;;;23.10;61.10;;;;;;5031171;28;20449;-78
2022/08/21 09:15:22;;;;;;;38.67;35.88;;;23.20;60.60;;;;;;5030612;28;20037;-78
2022/08/21 09:18:07;;;;;;;38.45;35.78;;;23.20;59.60;;;;;;5013921;28;20506;-78
2022/08/21 09:20:47;;;;;;;33.03;30.80;;;23.30;60.30;;;;;;5031366;28;20053;-78
2022/08/21 09:23:13;;;;;;;32.13;29.83;;;23.50;59.80;;;;;;4999959;28;20026;-78
2022/08/21 09:26:03;;;;;;;29.00;26.83;;;23.50;58.50;;;;;;5031427;28;20033;-78
2022/08/21 09:28:35;;;;;;;27.85;25.52;;;23.50;58.30;;;;;;5030595;28;20041;-78
2022/08/21 09:31:29;;;;;;;27.65;25.33;;;23.40;58.60;;;;;;4998055;28;20040;-78
2022/08/21 09:34:02;;;;;;;26.10;24.30;;;23.50;58.10;;;;;;5012656;28;20038;-78
2022/08/21 09:36:40;;;;;;;25.02;23.10;;;23.50;58.00;;;;;;4980157;28;20045;-78
2022/08/21 09:39:10;;;;;;;25.05;23.33;;;23.40;57.50;;;;;;4963132;28;20045;-78
2022/08/21 09:41:36;;;;;;;30.83;28.52;;;23.20;58.40;;;;;;4995162;28;20072;-78
2022/08/21 09:44:03;;;;;;;39.58;36.78;;;23.30;58.90;;;;;;4991143;28;20479;-78
2022/08/21 09:46:29;;;;;;;41.03;38.05;;;23.40;59.00;;;;;;4997904;28;20042;-78
2022/08/21 09:48:58;;;;;;;35.72;33.35;;;23.60;57.90;;;;;;5033482;28;20033;-78
2022/08/21 09:51:33;;;;;;;32.08;29.45;;;23.70;58.20;;;;;;5032005;28;20052;-78
2022/08/21 09:54:05;;;;;;;29.70;27.17;;;23.70;57.70;;;;;;5015181;28;20029;-78
2022/08/21 09:59:30;;;;;;;29.17;26.85;;;23.80;58.20;;;;;;5023918;28;20441;-78
2022/08/21 10:01:57;;;;;;;29.65;27.48;;;24.00;57.70;;;;;;5016164;28;20029;-78
2022/08/21 10:04:36;;;;;;;26.98;25.38;;;24.30;57.00;;;;;;5051809;28;20025;-78
2022/08/21 10:07:13;;;;;;;27.20;25.17;;;24.50;55.60;;;;;;5035050;28;20044;-78
2022/08/21 10:09:39;;;;;;;26.90;24.75;;;24.50;55.80;;;;;;5035000;28;20033;-78
2022/08/21 10:12:24;;;;;;;23.95;22.27;;;24.70;54.40;;;;;;5051582;28;20029;-78
2022/08/21 10:15:01;;;;;;;27.65;25.83;;;24.70;54.80;;;;;;5051517;28;20029;-78
2022/08/21 10:17:41;;;;;;;28.05;25.98;;;24.60;54.00;;;;;;5034513;28;20040;-78
2022/08/21 10:20:29;;;;;;;29.52;27.83;;;24.40;54.90;;;;;;5051719;28;20394;-78
2022/08/21 10:23:13;;;;;;;30.52;28.80;;;24.40;55.20;;;;;;5050874;28;20033;-78
2022/08/21 10:26:04;;;;;;;29.55;27.85;;;24.60;55.80;;;;;;5052255;28;20036;-78
2022/08/21 10:28:37;;;;;;;28.73;26.88;;;24.90;54.00;;;;;;5034701;28;20041;-78
2022/08/21 10:31:21;;;;;;;26.33;24.58;;;25.10;54.10;;;;;;5050690;28;20033;-78
2022/08/21 10:33:54;;;;;;;27.35;25.67;;;25.10;53.00;;;;;;5051282;28;20017;-78
2022/08/21 10:36:41;;;;;;;25.80;24.20;;;25.10;53.10;;;;;;5036805;28;20052;-78
2022/08/21 10:39:40;;;;;;;28.55;26.95;;;25.00;52.90;;;;;;5034084;28;20398;-78
2022/08/21 10:42:20;;;;;;;26.55;24.95;;;25.10;53.40;;;;;;5013079;28;20040;-78
2022/08/21 10:44:55;;;;;;;26.63;25.05;;;25.20;52.50;;;;;;5029860;28;20045;-78
2022/08/21 10:47:29;;;;;;;28.17;26.23;;;25.10;52.80;;;;;;4996460;28;20506;-78
2022/08/21 10:50:04;;;;;;;27.83;26.13;;;25.20;53.30;;;;;;4961650;28;20041;-78
2022/08/21 10:52:49;;;;;;;27.40;25.70;;;25.30;53.20;;;;;;5010173;28;20042;-78
2022/08/21 10:55:23;;;;;;;27.98;26.20;;;25.40;52.30;;;;;;4993275;28;20041;-78
2022/08/21 10:58:02;;;;;;;28.73;27.08;;;25.30;52.70;;;;;;4993690;28;20041;-78
2022/08/21 11:00:33;;;;;;;28.27;26.67;;;25.20;52.70;;;;;;4960953;28;20034;-78
2022/08/21 11:03:16;;;;;;;31.08;29.08;;;25.20;52.80;;;;;;4961909;28;20045;-78
2022/08/21 11:05:57;;;;;;;32.90;30.98;;;25.20;52.90;;;;;;4960457;28;20041;-78
2022/08/21 11:08:50;;;;;;;30.80;28.92;;;25.20;53.00;;;;;;4961693;28;20372;-78
2022/08/21 11:11:39;;;;;;;35.72;33.60;;;25.00;52.90;;;;;;4980259;28;20483;-78
2022/08/21 11:14:41;;;;;;;33.28;31.38;;;24.80;53.40;;;;;;4995535;28;20052;-78
2022/08/21 11:17:09;;;;;;;29.17;27.50;;;24.70;54.40;;;;;;4984720;28;20032;-78
2022/08/21 11:19:45;;;;;;;36.03;33.85;;;24.50;55.10;;;;;;5030540;28;20034;-78
2022/08/21 11:22:17;;;;;;;40.13;37.83;;;24.40;56.20;;;;;;4998095;28;20050;-78
2022/08/21 11:25:20;;;;;;;43.33;40.40;;;24.40;56.50;;;;;;4997725;28;20048;-78
2022/08/21 11:27:58;;;;;;;44.67;42.08;;;24.50;57.10;;;;;;5030426;28;20024;-77
2022/08/21 11:30:26;;;;;;;47.20;44.42;;;24.40;57.80;;;;;;5014874;28;20030;-77
2022/08/21 11:33:30;;;;;;;51.00;47.78;;;24.40;58.60;;;;;;5014169;28;20037;-77
2022/08/21 11:36:14;;;;;;;53.13;50.13;;;24.40;59.50;;;;;;5042051;28;20032;-77
2022/08/21 11:38:42;;;;;;;53.03;49.85;;;24.30;61.80;;;;;;5018648;28;20051;-77
2022/08/21 11:41:43;;;;;;;50.75;47.55;;;24.10;61.50;;;;;;5049938;28;20032;-77
2022/08/21 11:44:42;;;;;;;51.10;47.97;;;24.10;63.30;;;;;;5049864;28;20037;-76
2022/08/21 11:47:26;;;;;;;56.22;52.90;;;24.00;63.50;;;;;;5052174;28;20048;-77
2022/08/21 11:50:15;;;;;;;46.35;43.45;;;23.90;64.10;;;;;;5049688;28;20044;-76
2022/08/21 11:52:45;;;;;;;51.25;47.67;;;23.90;64.90;;;;;;5049703;28;20028;-77
2022/08/21 11:55:18;;;;;;;47.40;44.50;;;23.80;65.60;;;;;;5016761;28;20406;-77
2022/08/21 11:57:52;;;;;;;56.53;53.17;;;23.70;66.40;;;;;;5049601;28;20032;-77
2022/08/21 12:00:33;;;;;;;45.63;43.05;;;23.70;67.00;;;;;;5049195;28;20036;-77
2022/08/21 12:03:09;;;;;;;52.27;49.17;;;23.60;67.00;;;;;;5049874;28;20029;-77
2022/08/21 12:05:40;;;;;;;45.58;43.03;;;23.60;68.30;;;;;;5049720;28;20021;-77
2022/08/21 12:08:14;;;;;;;43.83;41.33;;;23.60;67.90;;;;;;5032304;28;20037;-77
2022/08/21 12:10:45;;;;;;;44.50;41.97;;;23.60;68.30;;;;;;5033097;28;20032;-77
2022/08/21 12:13:23;;;;;;;46.97;44.22;;;23.60;68.10;;;;;;5032703;28;20057;-77
2022/08/21 12:15:50;;;;;;;45.78;43.25;;;23.70;67.70;;;;;;5049051;28;20029;-77
2022/08/21 12:18:30;;;;;;;46.92;44.28;;;23.80;67.90;;;;;;5053501;28;20033;-77
2022/08/21 12:21:02;;;;;;;42.90;40.40;;;23.80;67.90;;;;;;5053159;28;20041;-77
2022/08/21 12:23:44;;;;;;;41.47;38.97;;;23.70;68.00;;;;;;5036329;28;20045;-77
2022/08/21 12:26:17;;;;;;;34.17;32.33;;;23.80;66.40;;;;;;5037046;28;20032;-77
2022/08/21 12:28:43;;;;;;;40.75;38.47;;;23.80;66.20;;;;;;5053742;28;20033;-77
2022/08/21 12:31:27;;;;;;;39.85;37.63;;;23.60;67.30;;;;;;5053184;28;20033;-77
2022/08/21 12:34:01;;;;;;;39.00;36.70;;;23.70;67.70;;;;;;5053672;28;20091;-77
2022/08/21 12:36:49;;;;;;;38.70;36.50;;;23.80;67.30;;;;;;5053230;28;20020;-78
2022/08/21 12:39:20;;;;;;;38.85;36.72;;;23.80;66.70;;;;;;5038855;28;20041;-78
2022/08/21 12:41:53;;;;;;;38.50;36.30;;;23.90;66.10;;;;;;5053647;28;20025;-78
2022/08/21 12:44:43;;;;;;;43.67;41.17;;;24.00;65.20;;;;;;5031682;28;20029;-77
2022/08/21 12:47:26;;;;;;;42.13;39.65;;;23.90;64.30;;;;;;5056093;28;20045;-77